Time;durP1;ratioP1;P1;durP2;ratioP2;P2;SDS_P1;SDS_P2;PMS_P1;PMS_P2;Temp;Humidity;BMP_temperature;BMP_pressure;BME280_temperature;BME280_humidity;BME280_pressure;Samples;Min_cycle;Max_cycle;Signal;HPM_P1;HPM_P2
2022/07/27 00:01:21;;;;;;;2.28;0.90;;;20.30;51.80;;;;;;5033979;28;20071;-47
2022/07/27 00:03:48;;;;;;;2.65;0.70;;;20.30;52.00;;;;;;5030325;28;20073;-47
2022/07/27 00:06:15;;;;;;;1.40;1.23;;;20.30;52.20;;;;;;5029949;28;20045;-51
2022/07/27 00:08:44;;;;;;;2.05;0.90;;;20.40;52.20;;;;;;5041495;28;20033;-51
2022/07/27 00:11:12;;;;;;;3.42;0.95;;;20.30;51.90;;;;;;5025077;28;20059;-51
2022/07/27 00:13:43;;;;;;;2.35;0.93;;;20.30;52.30;;;;;;5050436;28;20094;-51
2022/07/27 00:16:13;;;;;;;3.30;0.65;;;20.40;52.50;;;;;;5024606;28;20050;-50
2022/07/27 00:18:40;;;;;;;0.80;0.57;;;20.40;52.50;;;;;;5036445;28;20659;-50
2022/07/27 00:21:07;;;;;;;1.10;0.47;;;20.40;52.50;;;;;;5042653;28;20053;-49
2022/07/27 00:23:35;;;;;;;2.42;0.93;;;20.40;52.40;;;;;;5045411;28;20714;-47
2022/07/27 00:26:02;;;;;;;2.35;1.08;;;20.40;52.60;;;;;;5039222;28;20052;-47
2022/07/27 00:28:29;;;;;;;2.50;0.70;;;20.40;52.50;;;;;;5037127;28;20107;-50
2022/07/27 00:31:01;;;;;;;3.65;0.68;;;20.40;52.40;;;;;;5030770;28;20041;-47
2022/07/27 00:33:30;;;;;;;2.35;0.75;;;20.40;52.50;;;;;;5030892;28;20033;-47
2022/07/27 00:36:01;;;;;;;2.13;0.90;;;20.40;52.90;;;;;;5032187;28;20061;-46
2022/07/27 00:38:28;;;;;;;1.90;0.93;;;20.30;52.60;;;;;;5041967;28;20095;-48
2022/07/27 00:40:55;;;;;;;3.03;1.02;;;20.30;52.70;;;;;;5050069;28;20049;-47
2022/07/27 00:43:23;;;;;;;1.77;0.90;;;20.30;52.90;;;;;;5019850;28;20432;-50
2022/07/27 00:45:54;;;;;;;2.33;1.02;;;20.20;53.00;;;;;;5041610;28;20505;-51
2022/07/27 00:48:21;;;;;;;2.20;0.85;;;20.20;53.00;;;;;;5034140;28;20041;-47
2022/07/27 00:50:56;;;;;;;5.20;0.88;;;20.20;53.20;;;;;;5040099;28;20116;-50
2022/07/27 00:53:37;;;;;;;1.05;0.82;;;20.10;53.20;;;;;;5029126;28;20098;-52
2022/07/27 00:56:05;;;;;;;1.35;0.80;;;20.00;53.30;;;;;;5041882;28;20087;-51
2022/07/27 00:58:36;;;;;;;1.42;0.75;;;20.00;53.40;;;;;;5043999;28;20044;-50
2022/07/27 01:01:03;;;;;;;1.70;0.82;;;19.90;53.50;;;;;;5050720;28;20107;-46
2022/07/27 01:03:32;;;;;;;2.88;1.23;;;19.80;53.50;;;;;;5035770;28;20041;-48
2022/07/27 01:05:59;;;;;;;2.45;1.35;;;19.70;53.60;;;;;;5039668;28;20041;-49
2022/07/27 01:08:28;;;;;;;3.92;1.13;;;19.70;53.80;;;;;;5049582;28;20091;-46
2022/07/27 01:11:00;;;;;;;3.55;1.05;;;19.70;53.90;;;;;;5032865;28;20033;-52
2022/07/27 01:13:33;;;;;;;1.52;1.10;;;19.50;54.00;;;;;;5032722;28;20033;-51
2022/07/27 01:16:05;;;;;;;1.77;0.88;;;19.50;54.70;;;;;;5021763;28;20029;-48
2022/07/27 01:18:38;;;;;;;1.88;0.90;;;19.40;54.30;;;;;;5009462;28;20042;-52
2022/07/27 01:21:08;;;;;;;3.30;1.35;;;19.30;54.40;;;;;;5034049;28;20699;-46
2022/07/27 01:23:45;;;;;;;2.05;1.02;;;19.20;54.60;;;;;;5040303;28;20070;-49
2022/07/27 01:26:12;;;;;;;2.35;1.40;;;19.10;54.50;;;;;;5046366;28;20528;-47
2022/07/27 01:28:46;;;;;;;1.90;0.75;;;19.00;54.60;;;;;;5043536;28;20048;-47
2022/07/27 01:31:13;;;;;;;3.38;1.23;;;19.00;54.90;;;;;;5027547;28;20038;-50
2022/07/27 01:33:39;;;;;;;2.95;1.23;;;18.90;54.80;;;;;;5019146;28;20548;-47
2022/07/27 01:36:11;;;;;;;2.78;0.90;;;18.80;54.90;;;;;;5041660;28;20044;-47
2022/07/27 01:38:40;;;;;;;2.08;1.05;;;18.70;55.10;;;;;;5045006;28;20092;-47
2022/07/27 01:41:09;;;;;;;2.78;1.10;;;18.60;55.20;;;;;;5036347;28;20083;-49
2022/07/27 01:43:36;;;;;;;2.30;1.05;;;18.60;55.40;;;;;;5041561;28;20040;-47
2022/07/27 01:46:04;;;;;;;3.05;1.25;;;18.50;55.50;;;;;;5024146;28;20040;-46
2022/07/27 01:48:31;;;;;;;3.13;1.10;;;18.40;55.60;;;;;;5049296;28;20041;-49
2022/07/27 01:50:59;;;;;;;1.35;0.80;;;18.40;55.80;;;;;;5031907;28;20465;-50
2022/07/27 01:53:26;;;;;;;1.65;0.80;;;18.30;55.80;;;;;;5040617;28;20037;-48
2022/07/27 01:55:53;;;;;;;2.05;1.05;;;18.20;55.80;;;;;;5049424;28;20091;-46
2022/07/27 01:58:24;;;;;;;1.52;1.15;;;18.20;55.80;;;;;;5044813;28;20046;-50
2022/07/27 02:00:56;;;;;;;2.05;1.10;;;18.10;55.90;;;;;;5031028;28;20072;-49
2022/07/27 02:03:24;;;;;;;1.13;1.00;;;18.00;55.90;;;;;;5038009;28;20046;-50
2022/07/27 02:05:54;;;;;;;2.13;1.00;;;18.00;56.00;;;;;;5029738;28;20111;-49
2022/07/27 02:08:26;;;;;;;2.67;1.00;;;17.90;56.20;;;;;;5027746;28;20036;-50
2022/07/27 02:13:46;;;;;;;2.30;1.13;;;17.80;56.30;;;;;;5044614;28;20049;-46
2022/07/27 02:16:16;;;;;;;2.53;1.15;;;17.70;56.60;;;;;;5048914;28;20041;-51
2022/07/27 02:18:47;;;;;;;2.67;1.10;;;17.70;56.60;;;;;;5033826;28;20042;-50
2022/07/27 02:21:15;;;;;;;3.80;1.58;;;17.60;56.50;;;;;;5040979;28;20049;-48
2022/07/27 02:23:43;;;;;;;1.88;1.70;;;17.60;56.60;;;;;;5049804;28;20459;-48
2022/07/27 02:26:12;;;;;;;1.42;0.95;;;17.50;56.60;;;;;;5029548;28;20053;-48
2022/07/27 02:28:38;;;;;;;5.00;1.63;;;17.50;56.80;;;;;;5030265;28;20034;-45
2022/07/27 02:31:10;;;;;;;1.92;0.90;;;17.40;56.90;;;;;;5039703;28;20437;-46
2022/07/27 02:33:42;;;;;;;3.08;1.00;;;17.30;57.10;;;;;;5048948;28;20539;-48
2022/07/27 02:36:09;;;;;;;2.85;1.73;;;17.30;57.10;;;;;;5032650;28;20072;-48
2022/07/27 02:38:35;;;;;;;1.33;1.17;;;17.20;57.10;;;;;;5020650;28;20394;-47
2022/07/27 02:41:02;;;;;;;2.45;1.73;;;17.20;57.20;;;;;;5047160;28;20454;-48
2022/07/27 02:43:34;;;;;;;2.20;1.40;;;17.10;57.20;;;;;;5049648;28;20103;-46
2022/07/27 02:46:01;;;;;;;1.60;1.48;;;17.10;57.30;;;;;;5000832;28;20042;-46
2022/07/27 02:48:28;;;;;;;2.58;1.77;;;17.10;57.40;;;;;;5034912;28;20039;-50
2022/07/27 02:50:59;;;;;;;2.47;2.15;;;17.00;57.50;;;;;;5040819;28;20485;-50
2022/07/27 02:53:29;;;;;;;2.60;2.00;;;17.00;58.50;;;;;;5024204;28;20092;-50
2022/07/27 02:55:58;;;;;;;2.53;2.13;;;16.90;58.60;;;;;;5028965;28;20038;-50
2022/07/27 02:58:25;;;;;;;5.30;2.15;;;17.00;58.30;;;;;;5064259;23;20048;-43
2022/07/27 03:00:52;;;;;;;2.30;2.08;;;17.00;58.20;;;;;;5056237;28;20053;-43
2022/07/27 03:03:27;;;;;;;3.63;1.90;;;16.90;58.20;;;;;;5054132;28;20049;-49
2022/07/27 03:06:08;;;;;;;3.08;1.65;;;16.90;58.10;;;;;;5050922;28;20033;-48
2022/07/27 03:08:43;;;;;;;2.28;1.92;;;16.90;58.20;;;;;;5072497;28;20043;-45
2022/07/27 03:11:17;;;;;;;2.60;1.67;;;16.90;58.50;;;;;;5082356;28;20105;-49
2022/07/27 03:13:47;;;;;;;3.33;2.08;;;16.90;58.20;;;;;;5092616;28;20093;-47
2022/07/27 03:16:13;;;;;;;3.08;2.17;;;16.80;58.10;;;;;;5087427;28;20036;-45
2022/07/27 03:18:40;;;;;;;3.08;1.83;;;16.80;58.20;;;;;;5079691;28;20067;-52
2022/07/27 03:21:12;;;;;;;4.28;1.98;;;16.80;58.20;;;;;;5081860;28;20548;-48
2022/07/27 03:23:39;;;;;;;2.65;2.25;;;16.70;58.30;;;;;;5077757;28;20040;-46
2022/07/27 03:26:07;;;;;;;2.75;2.28;;;16.70;58.20;;;;;;5078809;28;20449;-44
2022/07/27 03:28:33;;;;;;;2.85;1.80;;;16.70;58.30;;;;;;5084663;28;20043;-47
2022/07/27 03:31:04;;;;;;;2.13;1.85;;;16.70;58.30;;;;;;5091125;28;20066;-49
2022/07/27 03:33:34;;;;;;;3.55;1.77;;;16.60;58.20;;;;;;5072534;28;20041;-47
2022/07/27 03:36:02;;;;;;;3.13;2.08;;;16.60;58.00;;;;;;5081867;28;20045;-46
2022/07/27 03:38:29;;;;;;;2.90;1.73;;;16.50;57.80;;;;;;5092856;28;20577;-46
2022/07/27 03:40:55;;;;;;;2.58;2.00;;;16.50;57.80;;;;;;5093028;28;20144;-46
2022/07/27 03:43:24;;;;;;;3.75;2.00;;;16.50;57.80;;;;;;5069919;28;20074;-48
2022/07/27 03:45:56;;;;;;;3.72;1.75;;;16.40;57.70;;;;;;5080679;28;20048;-45
2022/07/27 03:48:23;;;;;;;;;;;16.40;58.00;;;;;;5053454;28;20037;-49
2022/07/27 03:50:52;;;;;;;2.88;1.73;;;16.40;57.70;;;;;;5052899;28;19921;-46
2022/07/27 03:53:21;;;;;;;2.38;2.17;;;16.40;57.60;;;;;;5077613;28;20094;-45
2022/07/27 03:55:54;;;;;;;2.78;2.30;;;16.30;57.70;;;;;;5084301;28;20044;-45
2022/07/27 03:58:23;;;;;;;1.92;1.73;;;16.20;57.80;;;;;;5093056;28;20117;-45
2022/07/27 04:00:53;;;;;;;2.28;2.00;;;16.20;58.40;;;;;;5074489;28;20041;-53
2022/07/27 04:03:19;;;;;;;1.80;1.70;;;16.10;57.80;;;;;;5076311;28;20040;-45
2022/07/27 04:05:48;;;;;;;3.53;2.58;;;16.10;57.90;;;;;;5083607;28;20040;-48
2022/07/27 04:08:16;;;;;;;5.72;2.20;;;16.10;58.80;;;;;;5092339;28;20032;-46
2022/07/27 04:10:44;;;;;;;3.70;2.20;;;16.10;59.40;;;;;;5078158;28;20192;-50
2022/07/27 04:13:12;;;;;;;3.75;2.47;;;16.00;59.30;;;;;;5083508;28;20530;-50
2022/07/27 04:15:39;;;;;;;3.05;2.42;;;16.00;59.20;;;;;;5086630;28;20407;-49
2022/07/27 04:18:08;;;;;;;3.17;2.03;;;16.00;59.30;;;;;;5086575;28;20053;-48
2022/07/27 04:20:37;;;;;;;3.75;2.17;;;16.00;59.40;;;;;;5071156;28;20040;-47
2022/07/27 04:23:06;;;;;;;4.20;2.63;;;16.00;59.20;;;;;;5079079;28;20102;-46
2022/07/27 04:25:35;;;;;;;4.22;2.03;;;16.00;59.20;;;;;;5060250;28;20098;-46
2022/07/27 04:28:03;;;;;;;4.10;2.20;;;16.00;59.20;;;;;;5064106;28;20041;-49
2022/07/27 04:30:30;;;;;;;2.17;1.80;;;16.00;59.20;;;;;;5076706;28;20098;-45
2022/07/27 04:32:57;;;;;;;2.35;2.05;;;16.00;59.30;;;;;;5064084;28;20524;-46
2022/07/27 04:35:24;;;;;;;3.80;2.38;;;16.00;59.40;;;;;;5070286;28;20094;-47
2022/07/27 04:37:52;;;;;;;3.28;2.40;;;16.00;59.60;;;;;;5066052;28;20068;-47
2022/07/27 04:40:28;;;;;;;2.42;2.22;;;16.00;59.70;;;;;;5077316;28;20044;-47
2022/07/27 04:42:54;;;;;;;4.82;2.20;;;16.00;59.80;;;;;;5067977;28;20028;-47
2022/07/27 04:45:21;;;;;;;5.88;2.35;;;16.10;59.90;;;;;;5073817;28;20044;-49
2022/07/27 04:47:48;;;;;;;2.90;2.47;;;16.10;60.00;;;;;;5087577;28;20451;-49
2022/07/27 04:50:15;;;;;;;5.65;2.55;;;16.10;60.10;;;;;;5080431;28;20048;-47
2022/07/27 04:52:43;;;;;;;3.45;2.38;;;16.10;60.20;;;;;;5081244;28;20377;-47
2022/07/27 04:55:10;;;;;;;4.45;2.22;;;16.10;60.30;;;;;;5080809;28;20063;-51
2022/07/27 04:57:40;;;;;;;3.33;2.65;;;16.10;60.40;;;;;;5076555;28;20127;-49
2022/07/27 05:00:08;;;;;;;3.10;2.78;;;16.10;60.60;;;;;;5081381;28;20048;-48
2022/07/27 05:02:39;;;;;;;4.25;2.78;;;16.10;60.60;;;;;;5083753;28;20055;-46
2022/07/27 05:05:07;;;;;;;2.50;2.30;;;16.10;60.90;;;;;;5076856;28;20576;-49
2022/07/27 05:07:35;;;;;;;3.47;3.17;;;16.20;60.80;;;;;;5065277;28;20052;-46
2022/07/27 05:10:02;;;;;;;2.97;2.40;;;16.30;61.00;;;;;;5078027;28;20548;-47
2022/07/27 05:12:29;;;;;;;3.55;2.78;;;16.20;61.10;;;;;;5069495;28;20037;-45
2022/07/27 05:14:56;;;;;;;3.58;2.60;;;16.30;62.10;;;;;;5061467;28;20386;-51
2022/07/27 05:17:22;;;;;;;4.85;2.47;;;16.30;61.50;;;;;;5065999;28;20032;-46
2022/07/27 05:19:49;;;;;;;4.60;2.78;;;16.30;61.90;;;;;;5072200;28;20033;-49
2022/07/27 05:22:16;;;;;;;4.80;3.05;;;16.40;62.20;;;;;;5088689;28;20569;-52
2022/07/27 05:24:44;;;;;;;4.75;2.55;;;16.50;62.40;;;;;;5067256;28;20040;-46
2022/07/27 05:27:11;;;;;;;5.80;2.72;;;16.50;62.60;;;;;;5077844;28;20052;-49
2022/07/27 05:29:38;;;;;;;6.05;2.95;;;16.60;62.60;;;;;;5079886;28;20044;-47
2022/07/27 05:32:05;;;;;;;5.60;3.22;;;16.70;62.50;;;;;;5089223;28;20588;-50
2022/07/27 05:34:32;;;;;;;4.25;3.05;;;16.70;62.40;;;;;;5066689;28;20139;-45
2022/07/27 05:36:58;;;;;;;4.30;2.85;;;16.70;62.50;;;;;;5074809;28;20132;-48
2022/07/27 05:39:25;;;;;;;4.47;2.95;;;16.90;62.50;;;;;;5066992;28;20055;-49
2022/07/27 05:41:52;;;;;;;4.40;3.08;;;16.90;62.30;;;;;;5056962;28;20448;-50
2022/07/27 05:44:19;;;;;;;3.33;2.97;;;16.90;62.20;;;;;;5065795;28;20044;-53
2022/07/27 05:46:45;;;;;;;4.07;2.92;;;17.00;62.20;;;;;;5062943;28;20115;-53
2022/07/27 05:49:15;;;;;;;3.78;2.45;;;17.10;62.10;;;;;;5064263;28;20615;-46
2022/07/27 05:51:42;;;;;;;5.47;2.67;;;17.10;61.70;;;;;;5051123;28;20063;-45
2022/07/27 05:54:09;;;;;;;6.50;3.22;;;17.20;61.90;;;;;;5060733;28;20052;-46
2022/07/27 05:56:37;;;;;;;4.22;2.45;;;17.20;61.80;;;;;;5079779;28;20068;-46
2022/07/27 05:59:04;;;;;;;7.93;2.50;;;17.30;61.90;;;;;;5083876;28;20419;-47
2022/07/27 06:01:33;;;;;;;6.20;3.33;;;17.30;61.60;;;;;;5062565;28;20086;-45
2022/07/27 06:04:00;;;;;;;6.85;3.05;;;17.40;61.50;;;;;;5076195;28;20036;-47
2022/07/27 06:09:12;;;;;;;2.92;2.22;;;17.40;61.40;;;;;;5077201;28;20731;-46
2022/07/27 06:11:40;;;;;;;4.75;3.00;;;17.40;61.20;;;;;;5066844;28;20111;-49
2022/07/27 06:14:07;;;;;;;4.65;2.40;;;17.50;61.20;;;;;;5075101;28;20496;-47
2022/07/27 06:16:34;;;;;;;4.60;2.30;;;17.50;61.40;;;;;;5074272;28;20094;-51
2022/07/27 06:19:00;;;;;;;4.60;2.42;;;17.60;61.40;;;;;;5072419;28;20090;-49
2022/07/27 06:21:27;;;;;;;4.18;2.05;;;17.60;61.30;;;;;;5065191;28;20049;-49
2022/07/27 06:23:54;;;;;;;3.83;1.92;;;17.60;61.20;;;;;;5078573;28;20048;-51
2022/07/27 06:26:21;;;;;;;3.17;2.13;;;17.70;61.30;;;;;;5089923;28;20047;-46
2022/07/27 06:28:48;;;;;;;3.10;1.95;;;17.70;61.20;;;;;;5071365;28;20105;-47
2022/07/27 06:31:14;;;;;;;4.45;1.35;;;17.70;61.00;;;;;;5069820;28;20464;-45
2022/07/27 06:33:42;;;;;;;3.25;1.73;;;17.80;60.90;;;;;;5063203;28;20062;-46
2022/07/27 06:36:11;;;;;;;4.68;1.65;;;17.80;60.50;;;;;;5063969;28;20053;-46
2022/07/27 06:38:38;;;;;;;7.03;1.60;;;17.90;60.50;;;;;;5050202;28;20084;-45
2022/07/27 06:41:05;;;;;;;2.92;1.52;;;18.00;60.40;;;;;;5066170;28;20044;-44
2022/07/27 06:43:32;;;;;;;3.72;1.33;;;18.00;60.40;;;;;;5068795;28;20841;-45
2022/07/27 06:45:59;;;;;;;4.25;1.70;;;18.10;60.20;;;;;;5066796;28;20033;-48
2022/07/27 06:48:26;;;;;;;1.63;1.00;;;18.10;60.00;;;;;;5069539;28;20036;-44
2022/07/27 06:50:52;;;;;;;4.53;1.50;;;18.10;59.80;;;;;;5073335;28;20044;-45
2022/07/27 06:53:19;;;;;;;3.95;1.50;;;18.20;59.80;;;;;;5062328;28;20044;-45
2022/07/27 06:55:48;;;;;;;2.97;1.30;;;18.20;59.70;;;;;;5056285;28;20049;-48
2022/07/27 06:58:14;;;;;;;2.80;1.08;;;18.30;59.60;;;;;;5053266;28;20040;-45
2022/07/27 07:00:42;;;;;;;2.72;1.30;;;18.30;59.50;;;;;;5069784;28;20501;-48
2022/07/27 07:03:10;;;;;;;2.53;1.17;;;18.40;59.30;;;;;;5080799;28;20051;-46
2022/07/27 07:05:45;;;;;;;3.50;1.27;;;18.40;59.30;;;;;;5070716;28;20041;-47
2022/07/27 07:08:13;;;;;;;1.40;0.70;;;18.50;58.80;;;;;;5069885;28;20044;-49
2022/07/27 07:10:41;;;;;;;2.50;1.13;;;18.50;58.50;;;;;;5079675;28;20541;-47
2022/07/27 07:13:08;;;;;;;2.25;0.93;;;18.60;58.60;;;;;;5072010;28;20520;-50
2022/07/27 07:15:37;;;;;;;1.98;0.95;;;18.60;58.40;;;;;;5080104;28;20043;-44
2022/07/27 07:18:06;;;;;;;1.08;0.73;;;18.70;58.10;;;;;;5074550;28;20044;-45
2022/07/27 07:20:34;;;;;;;3.28;1.25;;;18.70;58.00;;;;;;5081434;28;20584;-45
2022/07/27 07:23:02;;;;;;;1.80;0.80;;;18.80;58.20;;;;;;5091441;28;20040;-45
2022/07/27 07:25:29;;;;;;;0.93;0.73;;;18.80;58.00;;;;;;5072209;28;20079;-43
2022/07/27 07:27:56;;;;;;;1.83;1.00;;;18.80;57.90;;;;;;5073614;28;20036;-45
2022/07/27 07:30:23;;;;;;;2.95;1.23;;;19.00;58.10;;;;;;5081317;28;20669;-45
2022/07/27 07:32:50;;;;;;;2.78;0.98;;;19.00;57.90;;;;;;5089260;28;20526;-45
2022/07/27 07:35:18;;;;;;;1.42;0.70;;;19.10;58.00;;;;;;5079588;28;20101;-47
2022/07/27 07:37:45;;;;;;;1.50;0.70;;;19.20;57.90;;;;;;5062110;28;20748;-45
2022/07/27 07:40:19;;;;;;;1.45;0.50;;;19.40;57.70;;;;;;5075749;28;20554;-47
2022/07/27 07:43:07;;;;;;;2.78;0.38;;;19.50;56.80;;;;;;5074162;28;20133;-46
2022/07/27 07:45:36;;;;;;;2.20;0.50;;;19.60;56.40;;;;;;5062219;28;20103;-46
2022/07/27 07:48:17;;;;;;;2.10;0.43;;;19.80;56.00;;;;;;5077752;28;20036;-45
2022/07/27 07:50:43;;;;;;;2.03;0.40;;;20.00;55.50;;;;;;5081900;28;20040;-49
2022/07/27 07:53:10;;;;;;;1.58;0.40;;;20.00;55.20;;;;;;5090536;28;20547;-46
2022/07/27 07:55:40;;;;;;;1.17;0.40;;;20.20;54.80;;;;;;5069810;28;20036;-49
2022/07/27 07:58:06;;;;;;;1.05;0.40;;;20.30;54.60;;;;;;5077134;28;20044;-46
2022/07/27 08:00:34;;;;;;;1.30;0.63;;;20.40;54.40;;;;;;5082710;28;20068;-45
2022/07/27 08:03:01;;;;;;;2.70;0.70;;;20.60;55.10;;;;;;5088533;28;20052;-46
2022/07/27 08:05:31;;;;;;;2.00;0.75;;;20.70;53.40;;;;;;5070261;28;20052;-49
2022/07/27 08:07:58;;;;;;;1.65;0.40;;;20.90;53.20;;;;;;5074633;28;20052;-46
2022/07/27 08:10:26;;;;;;;1.17;0.57;;;20.90;52.80;;;;;;5062341;28;20095;-44
2022/07/27 08:12:55;;;;;;;2.35;0.80;;;21.00;52.80;;;;;;5061783;28;20036;-45
2022/07/27 08:15:24;;;;;;;2.33;0.50;;;21.10;52.70;;;;;;5063411;28;20068;-46
2022/07/27 08:18:01;;;;;;;2.28;1.52;;;21.20;52.20;;;;;;5068401;28;20457;-50
2022/07/27 08:20:28;;;;;;;0.88;0.50;;;21.20;52.00;;;;;;5052914;28;20044;-47
2022/07/27 08:22:55;;;;;;;3.25;0.50;;;21.30;51.90;;;;;;5060305;28;20456;-48
2022/07/27 08:25:22;;;;;;;2.20;0.77;;;21.30;52.10;;;;;;5061229;28;20041;-44
2022/07/27 08:27:48;;;;;;;1.02;0.60;;;21.30;51.90;;;;;;5065324;28;20048;-46
2022/07/27 08:30:15;;;;;;;1.92;1.00;;;21.30;51.80;;;;;;5064067;28;20039;-46
2022/07/27 08:32:48;;;;;;;2.53;0.80;;;21.30;51.70;;;;;;5065963;28;20044;-45
2022/07/27 08:35:16;;;;;;;1.53;0.50;;;21.30;51.40;;;;;;5079368;28;20044;-44
2022/07/27 08:37:43;;;;;;;0.90;0.43;;;21.30;51.50;;;;;;5090749;28;20068;-44
2022/07/27 08:40:11;;;;;;;1.63;0.98;;;21.30;51.30;;;;;;5072616;28;20085;-44
2022/07/27 08:43:00;;;;;;;1.30;0.50;;;21.30;51.30;;;;;;5073614;28;20577;-47
2022/07/27 08:45:29;;;;;;;3.28;1.63;;;21.30;51.70;;;;;;5079912;28;20509;-48
2022/07/27 08:47:56;;;;;;;0.98;0.43;;;21.20;51.40;;;;;;5089087;28;20050;-46
2022/07/27 08:50:23;;;;;;;2.88;0.73;;;21.20;51.60;;;;;;5081597;28;20424;-46
2022/07/27 08:52:55;;;;;;;2.45;0.60;;;21.20;51.60;;;;;;5069593;28;20044;-43
2022/07/27 08:55:22;;;;;;;3.05;0.60;;;21.20;51.60;;;;;;5070083;28;20558;-44
2022/07/27 08:57:50;;;;;;;1.35;0.50;;;21.20;51.10;;;;;;5071057;28;20033;-44
2022/07/27 09:00:18;;;;;;;1.27;0.30;;;21.30;51.10;;;;;;5060006;28;20041;-47
2022/07/27 09:02:45;;;;;;;2.60;0.57;;;21.30;50.80;;;;;;5064915;28;20090;-47
2022/07/27 09:05:12;;;;;;;1.65;0.50;;;21.30;51.20;;;;;;5077281;28;20045;-45
2022/07/27 09:07:39;;;;;;;0.90;0.35;;;21.40;51.10;;;;;;5091413;28;20105;-45
2022/07/27 09:10:09;;;;;;;1.17;0.47;;;21.40;51.20;;;;;;5067358;28;20090;-46
2022/07/27 09:12:36;;;;;;;1.40;0.88;;;21.50;51.10;;;;;;5079332;28;20045;-45
2022/07/27 09:15:06;;;;;;;1.52;0.52;;;21.60;50.70;;;;;;5077515;28;20086;-47
2022/07/27 09:17:33;;;;;;;3.60;0.65;;;21.60;50.20;;;;;;5066719;28;20036;-46
2022/07/27 09:20:21;;;;;;;1.45;0.43;;;21.70;50.30;;;;;;5072055;28;20663;-46
2022/07/27 09:22:53;;;;;;;4.10;0.95;;;21.80;50.30;;;;;;5082530;28;20071;-45
2022/07/27 09:25:26;;;;;;;0.93;0.63;;;21.90;50.10;;;;;;5049654;28;20072;-45
2022/07/27 09:28:15;;;;;;;1.92;0.52;;;22.00;50.20;;;;;;5056321;28;20072;-45
2022/07/27 09:30:42;;;;;;;2.55;0.73;;;22.10;49.50;;;;;;5075393;28;20032;-49
2022/07/27 09:33:10;;;;;;;2.13;0.60;;;22.20;48.80;;;;;;5074998;28;20436;-46
2022/07/27 09:35:37;;;;;;;0.77;0.40;;;22.20;48.10;;;;;;5050950;28;20475;-46
2022/07/27 09:38:20;;;;;;;0.80;0.30;;;22.20;48.10;;;;;;5066779;28;20041;-47
2022/07/27 09:41:01;;;;;;;1.25;0.60;;;22.30;47.10;;;;;;5077994;28;20044;-45
2022/07/27 09:43:28;;;;;;;1.38;0.65;;;22.30;48.00;;;;;;5077225;28;20040;-45
2022/07/27 09:46:15;;;;;;;0.98;0.30;;;22.30;47.90;;;;;;5087268;28;20128;-49
2022/07/27 09:48:42;;;;;;;2.40;0.50;;;22.40;47.80;;;;;;5071508;28;20052;-44
2022/07/27 09:51:10;;;;;;;1.50;0.55;;;22.40;46.80;;;;;;5082017;28;20441;-45
2022/07/27 09:54:04;;;;;;;1.88;0.50;;;22.50;47.00;;;;;;5069244;28;20129;-48
2022/07/27 09:56:33;;;;;;;1.27;0.40;;;22.40;46.80;;;;;;5064206;28;20045;-47
2022/07/27 09:59:02;;;;;;;3.08;0.60;;;22.50;46.80;;;;;;5075196;28;20059;-46
2022/07/27 10:01:33;;;;;;;1.17;0.30;;;22.50;46.40;;;;;;5079674;28;20039;-45
2022/07/27 10:04:04;;;;;;;0.98;0.40;;;22.50;46.30;;;;;;5090312;28;20046;-45
2022/07/27 10:06:31;;;;;;;2.42;0.50;;;22.40;45.80;;;;;;5072767;28;20456;-45
2022/07/27 10:09:21;;;;;;;1.75;0.75;;;22.60;45.80;;;;;;5081305;28;20126;-48
2022/07/27 10:11:48;;;;;;;3.53;0.40;;;22.40;45.80;;;;;;5071913;28;20105;-46
2022/07/27 10:14:15;;;;;;;0.40;0.30;;;22.30;45.70;;;;;;5072694;28;20766;-45
2022/07/27 10:16:49;;;;;;;1.25;0.55;;;22.30;45.90;;;;;;5071034;28;20409;-49
2022/07/27 10:19:33;;;;;;;0.73;0.30;;;22.30;45.70;;;;;;5086020;28;20042;-44
2022/07/27 10:22:00;;;;;;;0.30;0.30;;;22.40;45.80;;;;;;5094167;28;20080;-48
2022/07/27 10:24:35;;;;;;;1.15;0.40;;;22.50;45.70;;;;;;5087511;28;20044;-44
2022/07/27 10:27:27;;;;;;;2.22;0.28;;;22.60;45.40;;;;;;5087707;28;20047;-45
2022/07/27 10:29:55;;;;;;;1.15;0.32;;;22.80;45.10;;;;;;5092965;28;20496;-47
2022/07/27 10:32:30;;;;;;;0.85;0.30;;;22.90;44.90;;;;;;5091717;28;20097;-46
2022/07/27 10:34:58;;;;;;;0.40;0.22;;;23.10;43.10;;;;;;5068811;28;20043;-45
2022/07/27 10:37:28;;;;;;;0.35;0.30;;;23.20;43.60;;;;;;5088169;28;20098;-48
2022/07/27 10:43:21;;;;;;;1.15;0.52;;;23.30;43.90;;;;;;5073197;28;20520;-45
2022/07/27 10:45:50;;;;;;;0.90;0.60;;;23.40;43.20;;;;;;5084633;28;20109;-50
2022/07/27 10:48:39;;;;;;;1.98;1.00;;;23.60;42.90;;;;;;5057077;28;20064;-45
2022/07/27 10:51:15;;;;;;;1.42;0.25;;;23.70;42.00;;;;;;5055853;28;20409;-45
2022/07/27 10:53:44;;;;;;;0.50;0.20;;;23.80;41.90;;;;;;5072813;28;20040;-45
2022/07/27 10:56:45;;;;;;;0.65;0.20;;;23.90;42.20;;;;;;5076601;28;20040;-44
2022/07/27 10:59:12;;;;;;;0.98;0.30;;;24.00;41.50;;;;;;5077103;28;20114;-45
2022/07/27 11:01:57;;;;;;;2.33;0.52;;;24.10;41.50;;;;;;5075978;28;20045;-48
2022/07/27 11:04:24;;;;;;;1.65;0.28;;;24.30;40.70;;;;;;5074464;28;20043;-45
2022/07/27 11:06:56;;;;;;;1.67;0.43;;;24.30;40.60;;;;;;5080483;28;20403;-46
2022/07/27 11:09:44;;;;;;;1.08;0.40;;;24.40;41.10;;;;;;5056863;28;20107;-44
2022/07/27 11:12:30;;;;;;;4.28;0.50;;;24.50;40.90;;;;;;5072064;28;20111;-48
2022/07/27 11:14:57;;;;;;;2.33;0.50;;;24.50;40.50;;;;;;5088128;28;20028;-49
2022/07/27 11:17:26;;;;;;;0.73;0.50;;;24.50;40.50;;;;;;5088753;28;20043;-49
2022/07/27 11:20:13;;;;;;;1.95;0.25;;;24.50;39.90;;;;;;5091359;28;20079;-45
2022/07/27 11:22:40;;;;;;;0.82;0.30;;;24.50;40.00;;;;;;5083319;28;20051;-46
2022/07/27 11:25:27;;;;;;;3.10;1.15;;;24.50;40.20;;;;;;5075855;28;20526;-45
2022/07/27 11:27:56;;;;;;;0.55;0.30;;;24.50;39.70;;;;;;5072746;28;20052;-45
2022/07/27 11:30:24;;;;;;;0.90;0.30;;;24.40;39.40;;;;;;5066876;28;20044;-48
2022/07/27 11:32:51;;;;;;;0.30;0.20;;;24.30;39.20;;;;;;5071549;28;20032;-44
2022/07/27 11:35:18;;;;;;;2.38;0.30;;;24.30;39.40;;;;;;5083750;28;20101;-44
2022/07/27 11:38:04;;;;;;;0.60;0.38;;;24.20;39.40;;;;;;5093506;28;20040;-48
2022/07/27 11:40:51;;;;;;;1.42;0.40;;;24.10;38.50;;;;;;5077629;28;20055;-44
2022/07/27 11:43:40;;;;;;;1.33;0.30;;;24.00;38.90;;;;;;5085213;28;20040;-46
2022/07/27 11:46:25;;;;;;;0.57;0.30;;;23.90;39.50;;;;;;5092410;28;20507;-46
2022/07/27 11:48:55;;;;;;;3.92;0.40;;;23.90;39.90;;;;;;5062425;28;20651;-45
2022/07/27 11:51:35;;;;;;;1.13;0.60;;;24.00;41.20;;;;;;5066374;28;20047;-47
2022/07/27 11:54:07;;;;;;;0.82;0.40;;;24.00;40.60;;;;;;5069151;28;20098;-48
2022/07/27 11:56:35;;;;;;;;;;;24.10;40.80;;;;;;5074005;22;20037;-54
2022/07/27 11:59:05;;;;;;;0.30;0.28;;;24.20;41.80;;;;;;5018799;28;19976;-46
2022/07/27 12:01:42;;;;;;;1.20;0.30;;;24.40;40.20;;;;;;5025031;28;20120;-46
2022/07/27 12:04:17;;;;;;;0.55;0.40;;;24.60;39.30;;;;;;5026946;28;20087;-47
2022/07/27 12:06:58;;;;;;;0.95;0.17;;;24.80;38.70;;;;;;5022726;28;20049;-46
2022/07/27 12:09:26;;;;;;;0.80;0.45;;;25.00;38.50;;;;;;5016883;28;20076;-47
2022/07/27 12:12:12;;;;;;;0.75;0.20;;;25.10;38.30;;;;;;5014348;28;20037;-49
2022/07/27 12:14:44;;;;;;;1.60;0.45;;;25.20;37.80;;;;;;4995133;28;20042;-49
2022/07/27 12:17:17;;;;;;;3.03;0.30;;;25.20;37.60;;;;;;4994850;28;20050;-48
2022/07/27 12:20:13;;;;;;;1.77;0.45;;;25.20;37.20;;;;;;4990077;28;20042;-53
2022/07/27 12:22:49;;;;;;;1.27;0.30;;;25.30;37.40;;;;;;5013857;28;20510;-50
2022/07/27 12:25:15;;;;;;;0.32;0.32;;;25.30;36.90;;;;;;5019134;28;20075;-53
2022/07/27 12:28:05;;;;;;;0.98;0.30;;;25.40;37.90;;;;;;5007253;28;20103;-53
2022/07/27 12:30:43;;;;;;;1.50;0.35;;;25.50;37.70;;;;;;5004511;28;20453;-48
2022/07/27 12:33:31;;;;;;;1.75;0.40;;;25.70;37.60;;;;;;5011827;28;20069;-48
2022/07/27 12:36:00;;;;;;;1.45;0.40;;;25.80;36.60;;;;;;5010286;28;20418;-49
2022/07/27 12:38:59;;;;;;;0.90;0.30;;;25.80;36.10;;;;;;5010013;28;20124;-50
2022/07/27 12:41:36;;;;;;;0.65;0.40;;;25.90;36.40;;;;;;4963370;28;20046;-51
2022/07/27 12:44:04;;;;;;;2.72;0.22;;;25.80;35.20;;;;;;4991178;28;20050;-51
2022/07/27 12:46:31;;;;;;;1.00;0.38;;;25.70;35.40;;;;;;5002600;28;20042;-49
2022/07/27 12:48:57;;;;;;;1.63;0.47;;;25.70;35.20;;;;;;5010509;28;20030;-47
2022/07/27 12:51:24;;;;;;;3.08;0.47;;;25.60;35.40;;;;;;5009520;28;20153;-51
2022/07/27 12:53:51;;;;;;;0.80;0.20;;;25.60;35.10;;;;;;5010752;28;20556;-49
2022/07/27 12:56:18;;;;;;;1.95;0.30;;;25.50;35.00;;;;;;5005547;28;20096;-49
2022/07/27 12:58:57;;;;;;;1.23;0.30;;;25.60;35.30;;;;;;5010388;28;20052;-50
2022/07/27 13:01:24;;;;;;;1.90;0.30;;;25.60;35.10;;;;;;4990663;28;20526;-49
2022/07/27 13:03:51;;;;;;;0.52;0.38;;;25.70;35.60;;;;;;4990721;28;20050;-51
2022/07/27 13:06:18;;;;;;;1.08;0.55;;;25.80;35.30;;;;;;5005165;28;20049;-49
2022/07/27 13:08:45;;;;;;;0.50;0.30;;;25.90;35.20;;;;;;4999767;28;20038;-48
2022/07/27 13:11:11;;;;;;;1.92;0.30;;;26.00;34.90;;;;;;5006560;28;20101;-51
2022/07/27 13:13:39;;;;;;;0.85;0.22;;;26.00;34.60;;;;;;5006631;28;20072;-47